Data for 10/01/2005

Time Sea-Level Adjusted Pressure Absolute Pressure Temperature Relative Humidity Dew Point   
(mb) (inHg) (mb) (inHg) (C) (F) (%) (C) (F)
00:05 1011 29.85 840 24.81 14.7 58.5 53 5.3 41.5
00:10 1011 29.85 840 24.81 14.3 57.8 55 5.4 41.7
00:15 1011 29.85 840 24.81 15 58.9 51 5.1 41.2
00:20 1011 29.85 840 24.81 14.5 58.1 54 5.5 41.9
00:25 1010 29.83 840 24.81 15 59 52 5.2 41.4
00:30 1010 29.83 840 24.81 13.9 57.1 56 5.3 41.5
00:35 1010 29.83 840 24.81 14.2 57.5 57 5.8 42.5
00:40 1010 29.83 840 24.81 12.9 55.2 57 4.6 40.2
00:45 1010 29.83 839 24.78 13.3 56 57 5.2 41.3
00:50 1010 29.83 839 24.78 12.6 54.7 62 5.6 42
00:55 1010 29.83 839 24.78 13.2 55.8 55 4.4 40
01:00 1010 29.83 839 24.78 13.5 56.2 57 5.2 41.3
01:05 1010 29.83 839 24.78 13 55.5 57 4.7 40.5
01:10 1010 29.83 839 24.78 13.5 56.2 53 4.1 39.3
01:15 1010 29.83 839 24.78 13.5 56.2 54 4.3 39.8
01:20 1010 29.83 839 24.78 13.3 55.9 53 4 39.1
01:25 1010 29.83 839 24.78 13.3 56 53 4 39.2
01:30 1010 29.83 839 24.78 13.2 55.8 55 4.5 40.1
01:35 1010 29.83 839 24.78 12.5 54.6 57 4.4 39.9
01:40 1010 29.83 839 24.78 12.1 53.7 58 4 39.2
01:45 1009 29.8 839 24.78 12.4 54.4 50 2.3 36.2
01:50 1009 29.8 839 24.78 13.1 55.6 50 3 37.4
01:55 1009 29.8 839 24.78 14 57.2 44 2 35.7
02:00 1009 29.8 839 24.78 14.4 57.8 43 1.9 35.4
02:05 1009 29.8 839 24.78 14.7 58.4 41 1.7 35.1
02:10 1009 29.8 839 24.78 14.8 58.6 42 2.2 36
02:15 1009 29.8 839 24.78 14.6 58.3 40 1.1 34.1
02:20 1009 29.8 838 24.75 15 59 35 -0.1 31.9
02:25 1009 29.8 838 24.75 15.6 60.1 32 -0.8 30.5
02:30 1009 29.8 838 24.75 15.5 60 32 -0.8 30.5
02:35 1009 29.8 838 24.75 15.5 60 32 -0.9 30.4
02:40 1009 29.8 838 24.75 15.4 59.6 34 -0.3 31.4
02:45 1009 29.8 838 24.75 16 60.7 28 -2.2 28
02:50 1009 29.8 838 24.75 16.6 61.9 24 -3.8 25.1
02:55 1009 29.8 838 24.75 16.9 62.4 29 -1 30.2
03:00 1009 29.8 838 24.75 16.6 62 27 -2.4 27.7
03:05 1009 29.8 838 24.75 16.8 62.2 27 -2.2 28.1
03:10 1009 29.8 838 24.75 16.4 61.5 29 -1.4 29.5
03:15 1009 29.8 838 24.75 16.2 61.1 25 -3.7 25.3
03:20 1009 29.8 838 24.75 16.1 61 28 -2.3 27.8
03:25 1009 29.8 838 24.75 16 60.8 27 -2.9 26.8
03:30 1009 29.8 838 24.75 16.4 61.4 25 -3.9 25.1
03:35 1009 29.8 838 24.75 16.5 61.7 28 -2.2 28
03:40 1009 29.8 838 24.75 16 60.8 26 -3.3 26
03:45 1009 29.8 838 24.75 16.1 61 25 -3.7 25.3
03:50 1009 29.8 838 24.75 16.2 61.1 27 -2.9 26.8
03:55 1008 29.77 838 24.75 15.8 60.5 27 -3.2 26.3
04:00 1008 29.77 838 24.75 16 60.8 23 -5.2 22.6
04:05 1008 29.77 838 24.75 16.7 62 24 -3.8 25.1
04:10 1008 29.77 837 24.72 17.1 62.8 19 -6.4 20.5
04:15 1008 29.77 837 24.72 19.4 66.9 15 -8 17.6
04:20 1008 29.77 837 24.72 20.1 68.2 15 -7.5 18.5
04:25 1008 29.77 837 24.72 20 68 14 -8.2 17.2
04:30 1008 29.77 837 24.72 20.4 68.7 14 -7.9 17.7
04:35 1008 29.77 837 24.72 20.5 68.8 14 -7.8 18
04:40 1008 29.77 837 24.72 20.7 69.2 14 -7.8 17.9
04:45 1008 29.77 837 24.72 20.6 69.1 14 -8 17.7
04:50 1008 29.77 837 24.72 20.6 69.1 14 -8.1 17.4
04:55 1008 29.77 837 24.72 20.5 68.9 13 -8.4 16.9
05:00 1008 29.77 837 24.72 20.5 68.9 13 -8.4 16.9
05:05 1008 29.77 837 24.72 20.4 68.7 13 -8.7 16.3
05:10 1008 29.77 837 24.72 20.5 68.9 13 -8.5 16.7
05:15 1008 29.77 837 24.72 20.5 68.8 13 -8.5 16.8
05:20 1008 29.77 837 24.72 20.5 68.9 13 -9.2 15.4
05:25 1008 29.77 837 24.72 20.4 68.8 14 -8.2 17.2
05:30 1008 29.77 837 24.72 19.8 67.7 14 -8.6 16.5
05:35 1008 29.77 837 24.72 19.9 67.9 13 -8.9 16
05:40 1008 29.77 837 24.72 20.1 68.2 13 -9.2 15.5
05:45 1008 29.77 837 24.72 19.9 67.9 14 -8.7 16.3
05:50 1008 29.77 837 24.72 19.8 67.6 13 -9.4 15
05:55 1008 29.77 837 24.72 20.5 68.9 13 -9.2 15.5
06:00 1008 29.77 837 24.72 20.4 68.7 13 -9 15.8
06:05 1008 29.77 837 24.72 20.1 68.1 13 -9 15.8
06:10 1008 29.77 837 24.72 19.7 67.5 14 -8.8 16.2
06:15 1008 29.77 837 24.72 19.8 67.6 13 -9.7 14.6
06:20 1008 29.77 837 24.72 19.9 67.8 14 -8.4 16.9
06:25 1008 29.77 837 24.72 19.7 67.4 13 -9 15.8
06:30 1008 29.77 837 24.72 19.6 67.3 14 -8.9 16
06:35 1008 29.77 837 24.72 19.6 67.3 14 -8.9 16
06:40 1008 29.77 837 24.72 19.3 66.7 13 -9.3 15.2
06:45 1008 29.77 837 24.72 19.3 66.7 14 -9.1 15.7
06:50 1008 29.77 837 24.72 19.3 66.7 13 -9.5 14.8
06:55 1008 29.77 837 24.72 19.3 66.8 14 -8.9 16
07:00 1008 29.77 837 24.72 19.2 66.6 14 -9.2 15.5
07:05 1008 29.77 837 24.72 19 66.1 15 -8.6 16.6
07:10 1008 29.77 837 24.72 18.9 65.9 14 -9.6 14.7
07:15 1008 29.77 837 24.72 19.2 66.6 14 -9.1 15.6
07:20 1008 29.77 837 24.72 19 66.1 14 -9.3 15.2
07:25 1008 29.77 837 24.72 19.2 66.5 14 -9 15.9
07:30 1008 29.77 837 24.72 19.2 66.5 14 -9.3 15.2
07:35 1008 29.77 837 24.72 19.3 66.8 14 -9 15.9
07:40 1008 29.77 837 24.72 19.1 66.3 18 -5.7 21.7
07:45 1008 29.77 837 24.72 18.6 65.5 15 -8.6 16.5
07:50 1007 29.74 837 24.72 19 66.2 14 -8.7 16.4
07:55 1008 29.77 837 24.72 19 66.2 15 -8.3 17
08:00 1007 29.74 837 24.72 18.9 66.1 15 -7.9 17.8
08:05 1007 29.74 837 24.72 19 66.2 15 -8.4 16.9
08:10 1007 29.74 837 24.72 19 66.2 15 -7.9 17.8
08:15 1007 29.74 837 24.72 18.9 66 19 -5 23
08:20 1007 29.74 837 24.72 19 66.1 17 -6.5 20.2
08:25 1007 29.74 836 24.69 18.7 65.6 17 -6.6 20.1
08:30 1007 29.74 836 24.69 18.7 65.7 16 -7.6 18.4
08:35 1007 29.74 836 24.69 19.3 66.7 16 -7.2 19.1
08:40 1007 29.74 836 24.69 19.8 67.6 16 -6.8 19.8
08:45 1007 29.74 836 24.69 20.3 68.5 16 -6.1 21.1
08:50 1007 29.74 836 24.69 21 69.7 15 -6.9 19.5
08:55 1007 29.74 836 24.69 21.7 71.1 15 -5.6 21.9
09:00 1007 29.74 836 24.69 21.9 71.4 17 -3.7 25.3
09:05 1007 29.74 836 24.69 22.4 72.3 16 -4.8 23.3
09:10 1007 29.74 836 24.69 22.7 72.8 13 -6.9 19.5
09:15 1007 29.74 836 24.69 22.5 72.6 13 -6.8 19.8
09:20 1007 29.74 836 24.69 23.5 74.3 13 -6.2 20.9
09:25 1007 29.74 836 24.69 24.2 75.5 14 -5.3 22.5
09:30 1007 29.74 836 24.69 24.1 75.3 13 -5.8 21.6
09:35 1007 29.74 836 24.69 23.4 74 12 -7.1 19.2
09:40 1007 29.74 836 24.69 22.9 73.2 13 -6.5 20.3
09:45 1007 29.74 836 24.69 22.9 73.3 14 -6 21.1
09:50 1007 29.74 836 24.69 22.9 73.2 13 -6.4 20.4
09:55 1007 29.74 836 24.69 22.9 73.3 13 -6.7 20
10:00 1007 29.74 836 24.69 22.8 73 13 -7.3 18.9
10:05 1007 29.74 836 24.69 22.6 72.7 13 -7.4 18.7
10:10 1007 29.74 836 24.69 23.1 73.5 13 -6.5 20.2
10:15 1007 29.74 836 24.69 23.5 74.4 13 -6.3 20.7
10:20 1007 29.74 836 24.69 24.1 75.4 14 -4.8 23.3
10:25 1007 29.74 836 24.69 23.9 75.1 12 -6.6 20.2
10:30 1007 29.74 836 24.69 23.9 74.9 12 -7.2 19
10:35 1007 29.74 836 24.69 23.9 75 11 -7.6 18.3
10:40 1006 29.71 836 24.69 24.5 76.1 12 -6.8 19.8
10:45 1006 29.71 836 24.69 24.9 76.9 13 -5.3 22.5
10:50 1007 29.74 836 24.69 25.9 78.6 12 -5.2 22.7
10:55 1006 29.71 836 24.69 26.4 79.6 11 -6.3 20.7
11:00 1006 29.71 836 24.69 26.1 79 12 -5.8 21.5
11:05 1006 29.71 835 24.66 25.7 78.3 12 -5.7 21.8
11:10 1006 29.71 835 24.66 25.1 77.1 10 -8.4 16.9
11:15 1006 29.71 835 24.66 25.1 77.1 11 -7.8 18
11:20 1006 29.71 835 24.66 25.8 78.4 10 -7.8 17.9
11:25 1006 29.71 835 24.66 26.4 79.4 10 -7.6 18.4
11:30 1006 29.71 835 24.66 26.1 79 10 -8.2 17.3
11:35 1006 29.71 835 24.66 26 78.8 9 -9.3 15.3
11:40 1006 29.71 835 24.66 25.5 77.9 9 -8.9 16
11:45 1006 29.71 835 24.66 25.6 78 10 -7.7 18.2
11:50 1006 29.71 835 24.66 25.9 78.7 9 -9 15.8
11:55 1006 29.71 835 24.66 25.8 78.4 9 -10 14.1
12:00 1005 29.68 835 24.66 25.7 78.3 9 -9.5 14.9
12:05 1006 29.71 835 24.66 25.7 78.2 9 -9.1 15.7
12:10 1005 29.68 835 24.66 25.4 77.7 9 -9.2 15.4
12:15 1005 29.68 835 24.66 25.1 77.1 8 -11.2 11.8
12:20 1005 29.68 835 24.66 25.1 77.2 9 -10.3 13.5
12:25 1005 29.68 835 24.66 25.1 77.2 9 -9.3 15.3
12:30 1005 29.68 834 24.63 25.1 77.3 10 -8.8 16.1
12:35 1005 29.68 834 24.63 25.3 77.6 9 -9.9 14.1
12:40 1005 29.68 834 24.63 25 77 9 -10.3 13.5
12:45 1005 29.68 834 24.63 24.7 76.4 9 -9.7 14.5
12:50 1005 29.68 834 24.63 24.5 76.1 9 -9.9 14.2
12:55 1005 29.68 834 24.63 24.5 76.1 10 -8.9 16
13:00 1005 29.68 834 24.63 24.5 76.1 11 -8.2 17.3
13:05 1005 29.68 834 24.63 24.6 76.2 11 -7.7 18.1
13:10 1005 29.68 834 24.63 24.5 76.1 12 -7 19.4
13:15 1005 29.68 834 24.63 24.5 76.1 11 -8 17.6
13:20 1005 29.68 834 24.63 24.5 76.1 11 -8.3 17.1
13:25 1005 29.68 834 24.63 24.1 75.4 11 -7.7 18.1
13:30 1005 29.68 834 24.63 23.9 75.1 11 -7.7 18.2
13:35 1005 29.68 834 24.63 24.3 75.7 10 -9 15.7
13:40 1005 29.68 834 24.63 25.1 77.2 10 -8.6 16.6
13:45 1005 29.68 834 24.63 25.4 77.8 10 -8.8 16.2
13:50 1005 29.68 834 24.63 25.5 77.8 10 -8.6 16.5
13:55 1005 29.68 834 24.63 25.5 77.9 9 -9.2 15.4
14:00 1005 29.68 834 24.63 25.6 78.1 9 -9.1 15.6
14:05 1005 29.68 834 24.63 25.5 77.9 9 -9.1 15.7
14:10 1005 29.68 834 24.63 25.3 77.5 9 -9.2 15.5
14:15 1005 29.68 834 24.63 25.5 77.8 9 -9.6 14.7
14:20 1005 29.68 834 24.63 25.3 77.6 9 -9.9 14.3
14:25 1005 29.68 834 24.63 25.6 78.1 10 -8.7 16.3
14:30 1005 29.68 834 24.63 25.7 78.3 9 -9.3 15.2
14:35 1005 29.68 834 24.63 25.9 78.6 10 -8.2 17.3
14:40 1005 29.68 834 24.63 26 78.7 9 -8.6 16.5
14:45 1004 29.65 834 24.63 26.1 78.9 8 -10 13.9
14:50 1004 29.65 834 24.63 25.8 78.5 9 -9.1 15.7
14:55 1004 29.65 834 24.63 25.6 78.1 10 -8.7 16.4
15:00 1004 29.65 834 24.63 25.4 77.7 9 -9.7 14.6
15:05 1004 29.65 834 24.63 25.5 77.8 9 -9.5 14.9
15:10 1004 29.65 834 24.63 25.2 77.4 9 -9.9 14.2
15:15 1004 29.65 834 24.63 25 77 9 -9.6 14.8
15:20 1004 29.65 834 24.63 25 76.9 9 -9.9 14.1
15:25 1004 29.65 834 24.63 24.7 76.4 9 -10.4 13.2
15:30 1004 29.65 834 24.63 24.6 76.2 9 -10.1 13.8
15:35 1004 29.65 834 24.63 24.4 75.8 9 -11.1 12.1
15:40 1004 29.65 834 24.63 24.2 75.6 8 -11.6 11.1
15:45 1004 29.65 834 24.63 24.3 75.7 9 -10.9 12.3
15:50 1004 29.65 833 24.6 24.3 75.7 9 -10.6 12.9
15:55 1004 29.65 833 24.6 24.3 75.8 8 -11.4 11.5
16:00 1004 29.65 833 24.6 24.3 75.7 8 -11.6 11
16:05 1004 29.65 833 24.6 24.2 75.6 9 -10.9 12.5
16:10 1004 29.65 833 24.6 24.1 75.4 8 -11.5 11.3
16:15 1004 29.65 833 24.6 24 75.3 9 -10.3 13.4
16:20 1004 29.65 833 24.6 24 75.1 10 -9.7 14.5
16:25 1004 29.65 833 24.6 23.9 75 9 -11 12.2
16:30 1004 29.65 833 24.6 23.9 75 9 -10.4 13.2
16:35 1004 29.65 833 24.6 23.7 74.6 9 -11.4 11.5
16:40 1004 29.65 833 24.6 23.6 74.4 9 -11.2 11.8
16:45 1004 29.65 833 24.6 23.5 74.3 9 -10.6 13
16:50 1004 29.65 833 24.6 23.4 74.2 10 -9.9 14.3
16:55 1004 29.65 833 24.6 23.3 74 9 -11.1 12.1
17:00 1004 29.65 833 24.6 23.4 74.1 9 -10.8 12.5
17:05 1004 29.65 833 24.6 23.2 73.7 10 -9.6 14.8
17:10 1004 29.65 833 24.6 22.9 73.2 11 -9.1 15.5
17:15 1004 29.65 833 24.6 23 73.4 11 -8.9 15.9
17:20 1004 29.65 833 24.6 23.3 73.9 10 -9.6 14.7
17:25 1004 29.65 833 24.6 23.1 73.7 10 -9.8 14.4
17:30 1004 29.65 833 24.6 23.2 73.7 11 -8.9 16
17:35 1004 29.65 833 24.6 23.1 73.7 11 -8.6 16.4
17:40 1004 29.65 833 24.6 23 73.3 12 -7.8 18
17:45 1004 29.65 833 24.6 22.9 73.2 11 -8.7 16.3
17:50 1004 29.65 833 24.6 22.9 73.3 11 -8.4 16.9
17:55 1004 29.65 833 24.6 23 73.5 12 -8 17.6
18:00 1004 29.65 833 24.6 22.9 73.3 12 -8.2 17.2
18:05 1004 29.65 833 24.6 22.8 73 12 -8.3 17.1
18:10 1004 29.65 833 24.6 22.8 73 12 -8.2 17.3
18:15 1004 29.65 833 24.6 22.7 72.9 12 -8.1 17.4
18:20 1004 29.65 833 24.6 22.5 72.5 12 -7.7 18.2
18:25 1004 29.65 834 24.63 20.8 69.4 23 -0.7 30.8
18:30 1005 29.68 834 24.63 18.2 64.8 27 -0.8 30.6
18:35 1005 29.68 834 24.63 17.3 63.2 28 -1.1 29.9
18:40 1005 29.68 834 24.63 16.8 62.2 30 -0.9 30.4
18:45 1005 29.68 834 24.63 16.3 61.4 31 -0.5 31
18:50 1005 29.68 834 24.63 15.8 60.5 32 -0.8 30.5
18:55 1005 29.68 834 24.63 15.5 59.9 35 0 32
19:00 1005 29.68 835 24.66 14.7 58.4 40 1.4 34.5
19:05 1006 29.71 835 24.66 13.6 56.5 44 1.7 35.1
19:10 1006 29.71 835 24.66 12.7 54.9 47 1.7 35
19:15 1006 29.71 835 24.66 12.2 53.9 49 1.7 35
19:20 1006 29.71 835 24.66 11.6 52.9 51 2 35.5
19:25 1006 29.71 835 24.66 11 51.9 53 1.8 35.3
19:30 1006 29.71 836 24.69 10.8 51.5 53 1.8 35.2
19:35 1007 29.74 836 24.69 10.5 50.9 54 1.7 35
19:40 1007 29.74 836 24.69 10.3 50.5 56 1.8 35.3
19:45 1007 29.74 836 24.69 10.1 50.1 56 1.7 35.1
19:50 1007 29.74 836 24.69 10 50 56 1.6 34.9
19:55 1007 29.74 836 24.69 10 50 55 1.6 34.8
20:00 1007 29.74 836 24.69 10.1 50.1 56 1.7 35
20:05 1007 29.74 837 24.72 9.9 49.7 57 1.7 35.1
20:10 1007 29.74 837 24.72 9.8 49.7 56 1.6 34.9
20:15 1008 29.77 837 24.72 9.8 49.7 57 1.8 35.2
20:20 1008 29.77 837 24.72 9.7 49.5 58 1.9 35.3
20:25 1008 29.77 837 24.72 9.6 49.2 58 1.8 35.2
20:30 1008 29.77 837 24.72 9.6 49.2 58 1.7 35
20:35 1008 29.77 837 24.72 9.4 48.9 59 1.8 35.3
20:40 1008 29.77 837 24.72 9 48.2 60 1.7 35.1
20:45 1008 29.77 837 24.72 9 48.1 60 1.6 35
20:50 1008 29.77 837 24.72 8.9 48 61 1.7 35.1
20:55 1008 29.77 837 24.72 8.8 47.9 61 1.7 35.1
21:00 1008 29.77 837 24.72 8.8 47.8 61 1.8 35.2
21:05 1008 29.77 837 24.72 8.8 47.8 61 1.8 35.2
21:10 1008 29.77 837 24.72 8.8 47.8 61 1.8 35.2
21:15 1008 29.77 837 24.72 8.7 47.7 61 1.7 35.1
21:20 1008 29.77 838 24.75 8.7 47.6 62 1.9 35.4
21:25 1008 29.77 837 24.72 8.5 47.2 63 1.8 35.2
21:30 1008 29.77 837 24.72 8.4 47 63 1.7 35
21:35 1008 29.77 837 24.72 8.3 46.9 64 1.8 35.3
21:40 1008 29.77 837 24.72 8.1 46.5 64 1.8 35.2
21:45 1008 29.77 837 24.72 8 46.4 64 1.7 35
21:50 1008 29.77 838 24.75 8 46.5 64 1.7 35
21:55 1008 29.77 837 24.72 8 46.4 64 1.7 35
22:00 1008 29.77 838 24.75 8 46.5 64 1.7 35
22:05 1008 29.77 838 24.75 8 46.4 65 1.8 35.2
22:10 1008 29.77 837 24.72 8 46.5 64 1.7 35
22:15 1009 29.8 838 24.75 8.1 46.6 64 1.8 35.2
22:20 1008 29.77 838 24.75 8.1 46.6 64 1.8 35.2
22:25 1009 29.8 838 24.75 8.3 46.9 64 1.8 35.3
22:30 1008 29.77 838 24.75 8.2 46.8 64 1.8 35.3
22:35 1008 29.77 838 24.75 8.1 46.5 64 1.7 35.1
22:40 1008 29.77 838 24.75 7.9 46.1 65 1.7 35.1
22:45 1009 29.8 838 24.75 7.8 46 65 1.7 35
22:50 1009 29.8 838 24.75 7.7 45.9 65 1.6 34.9
22:55 1009 29.8 838 24.75 7.8 46 65 1.7 35
23:00 1009 29.8 838 24.75 7.8 46 65 1.7 35.1
23:05 1009 29.8 838 24.75 7.8 46 65 1.7 35
23:10 1009 29.8 838 24.75 7.8 46 65 1.7 35.1
23:15 1009 29.8 838 24.75 7.6 45.7 66 1.7 35
23:20 1009 29.8 838 24.75 7.4 45.2 67 1.7 35
23:25 1009 29.8 838 24.75 7.2 44.9 68 1.6 34.9
23:30 1009 29.8 838 24.75 7 44.7 68 1.6 34.9
23:35 1009 29.8 839 24.78 7 44.7 68 1.6 34.8
23:40 1009 29.8 839 24.78 7 44.5 68 1.6 34.8
23:45 1009 29.8 839 24.78 7 44.5 69 1.7 35.1
23:50 1010 29.83 839 24.78 6.9 44.4 69 1.6 34.9
23:55 1010 29.83 839 24.78 6.9 44.5 69 1.6 34.9
24:00 1010 29.83 839 24.78 6.9 44.4 70 1.8 35.3